Rigolet, Canada
Current Conditions -  °F | °C
As of 2:00 AM on Saturday 25 Oct 2014 (Local Time) from CWCA Reporting Station
Broken Clouds Broken Clouds  
Wind Chill: 29°   Ceiling: 3500
Heat Index: 36°   Visibility: 15mi
Dew Point: 30°   Wind: 9mph
Humidity: 81%   Direction: 60°ENE
Pressure: 30.01"   Gusts: NA
Location:  54.17°N, 58.43°W
Report Text: CWCA 250500Z 06008KT 15SM BKN035 02/M01 A3001 RMK SC5 SLP162
Loading
Personal Weather Stations






























Interactive Weather Map
Tropical Storm Tracking
New forecast layout! Learn more

10-Day Weather Forecast

Advertisements
Track Severe Weather on mobile